createdAt,value
2018-06-28T00:01:37.447Z,64.20
2018-06-28T00:04:07.195Z,63.90
2018-06-28T00:06:36.894Z,64.20
2018-06-28T00:09:07.975Z,64.10
2018-06-28T00:11:38.740Z,64.00
2018-06-28T00:14:08.478Z,64.40
2018-06-28T00:16:38.265Z,64.70
2018-06-28T00:19:08.334Z,64.30
2018-06-28T00:21:38.194Z,64.10
2018-06-28T00:24:07.936Z,64.10
2018-06-28T00:26:37.714Z,64.30
2018-06-28T00:29:07.640Z,64.90
2018-06-28T00:31:37.371Z,65.80
2018-06-28T00:34:07.502Z,65.10
2018-06-28T00:36:37.215Z,65.30
2018-06-28T00:39:08.815Z,65.50
2018-06-28T00:41:38.863Z,65.30
2018-06-28T00:44:09.271Z,65.20
2018-06-28T00:46:39.415Z,65.40
2018-06-28T00:49:09.296Z,65.30
2018-06-28T00:51:39.382Z,67.00
2018-06-28T00:54:09.495Z,66.30
2018-06-28T00:56:39.254Z,66.50
2018-06-28T00:59:09.266Z,66.70
2018-06-28T01:01:39.008Z,66.60
2018-06-28T01:04:08.749Z,66.80
2018-06-28T01:06:38.466Z,66.80
2018-06-28T01:09:09.862Z,66.90
2018-06-28T01:11:40.056Z,67.30
2018-06-28T01:14:09.795Z,66.90
2018-06-28T01:16:40.036Z,67.20
2018-06-28T01:19:09.851Z,67.90
2018-06-28T01:21:39.556Z,67.20
2018-06-28T01:24:09.635Z,67.30
2018-06-28T01:26:39.322Z,67.70
2018-06-28T01:29:09.026Z,68.10
2018-06-28T01:31:38.698Z,67.70
2018-06-28T01:34:08.747Z,67.10
2018-06-28T01:36:38.442Z,68.00
2018-06-28T01:39:09.963Z,67.40
2018-06-28T01:41:51.631Z,67.40
2018-06-28T01:44:21.654Z,67.40
2018-06-28T01:46:51.392Z,67.60
2018-06-28T01:49:21.263Z,67.70
2018-06-28T01:51:50.951Z,68.00
2018-06-28T01:54:20.632Z,68.50
2018-06-28T01:56:50.412Z,68.60
2018-06-28T01:59:20.147Z,68.30
2018-06-28T02:01:49.941Z,68.80
2018-06-28T02:04:19.723Z,69.20
2018-06-28T02:06:49.627Z,69.50
2018-06-28T02:09:19.342Z,68.90
2018-06-28T02:11:49.111Z,68.20
2018-06-28T02:14:19.458Z,68.80
2018-06-28T02:16:49.342Z,69.30
2018-06-28T02:19:19.176Z,68.80
2018-06-28T02:21:48.998Z,69.00
2018-06-28T02:24:18.914Z,68.90
2018-06-28T02:26:48.735Z,69.90
2018-06-28T02:29:18.466Z,70.00
2018-06-28T02:31:48.171Z,71.00
2018-06-28T02:34:17.962Z,70.20
2018-06-28T02:36:47.689Z,69.60
2018-06-28T02:39:17.804Z,69.90
2018-06-28T02:41:47.530Z,70.60
2018-06-28T02:44:17.271Z,70.40
2018-06-28T02:46:47.021Z,70.40
2018-06-28T02:49:16.761Z,70.30
2018-06-28T02:51:46.447Z,70.10
2018-06-28T02:54:16.175Z,70.40
2018-06-28T02:56:45.894Z,71.20
2018-06-28T02:59:15.612Z,70.90
2018-06-28T03:01:45.314Z,70.90
2018-06-28T03:04:15.028Z,70.80
2018-06-28T03:06:44.749Z,70.60
2018-06-28T03:09:14.448Z,70.80
2018-06-28T03:11:44.187Z,71.20
2018-06-28T03:14:13.892Z,70.80
2018-06-28T03:16:43.967Z,71.20
2018-06-28T03:19:13.676Z,71.70
2018-06-28T03:21:43.410Z,71.30
2018-06-28T03:24:13.122Z,72.30
2018-06-28T03:26:42.818Z,71.60
2018-06-28T03:29:12.543Z,72.00
2018-06-28T03:31:42.253Z,71.60
2018-06-28T03:34:11.963Z,72.40
2018-06-28T03:36:41.659Z,72.70
2018-06-28T03:39:13.015Z,73.20
2018-06-28T03:41:42.952Z,73.00
2018-06-28T03:44:13.663Z,73.60
2018-06-28T03:46:43.457Z,72.40
2018-06-28T03:49:13.318Z,71.90
2018-06-28T03:51:43.026Z,72.00
2018-06-28T03:54:12.766Z,72.80
2018-06-28T03:56:42.480Z,72.60
2018-06-28T03:59:12.251Z,72.80
2018-06-28T04:01:45.270Z,73.50
2018-06-28T04:04:16.016Z,73.50
2018-06-28T04:06:45.965Z,73.90
2018-06-28T04:09:17.928Z,73.20
2018-06-28T04:11:47.640Z,72.90
2018-06-28T04:14:17.753Z,73.40
2018-06-28T04:16:47.577Z,73.20
2018-06-28T04:19:19.738Z,73.60
2018-06-28T04:21:49.640Z,73.70
2018-06-28T04:24:19.497Z,73.90
2018-06-28T04:26:49.255Z,73.40
2018-06-28T04:29:18.989Z,73.60
2018-06-28T04:31:53.174Z,73.90
2018-06-28T04:34:23.759Z,73.90
2018-06-28T04:36:53.496Z,73.40
2018-06-28T04:39:25.101Z,73.00
2018-06-28T04:41:56.209Z,73.50
2018-06-28T04:44:27.624Z,73.60
2018-06-28T04:46:57.427Z,72.90
2018-06-28T04:49:27.131Z,73.10
2018-06-28T04:51:56.828Z,73.30
2018-06-28T04:54:26.496Z,73.80
2018-06-28T04:56:56.215Z,73.80
2018-06-28T04:59:25.908Z,73.70
2018-06-28T05:01:55.587Z,73.90
2018-06-28T05:04:25.288Z,74.10
2018-06-28T05:06:55.041Z,74.70
2018-06-28T05:09:24.730Z,74.10
2018-06-28T05:11:54.461Z,74.20
2018-06-28T05:14:24.171Z,74.20
2018-06-28T05:16:53.965Z,74.30
2018-06-28T05:19:23.676Z,74.80
2018-06-28T05:21:53.392Z,74.80
2018-06-28T05:24:23.099Z,74.20
2018-06-28T05:26:52.857Z,74.60
2018-06-28T05:29:22.539Z,74.30
2018-06-28T05:31:52.531Z,73.40
2018-06-28T05:34:22.642Z,73.40
2018-06-28T05:36:52.589Z,73.10
2018-06-28T05:39:23.347Z,72.40
2018-06-28T05:41:53.065Z,72.40
2018-06-28T05:44:22.781Z,72.30
2018-06-28T05:46:52.673Z,72.50
2018-06-28T05:49:22.582Z,72.40
2018-06-28T05:51:52.454Z,72.90
2018-06-28T05:54:22.437Z,72.20
2018-06-28T05:56:52.567Z,71.10
2018-06-28T05:59:22.287Z,70.40
2018-06-28T06:01:52.370Z,71.00
2018-06-28T06:04:22.077Z,70.00
2018-06-28T06:06:51.756Z,69.50
2018-06-28T06:09:21.448Z,68.70
2018-06-28T06:11:51.193Z,67.50
2018-06-28T06:14:20.887Z,69.00
2018-06-28T06:16:50.622Z,70.10
2018-06-28T06:19:21.052Z,70.70
2018-06-28T06:21:50.741Z,69.60
2018-06-28T06:24:20.596Z,67.20
2018-06-28T06:26:50.367Z,65.70
2018-06-28T06:29:20.267Z,63.40
2018-06-28T06:31:50.280Z,62.50
2018-06-28T06:34:19.991Z,62.50
2018-06-28T06:36:49.643Z,60.50
2018-06-28T06:39:19.331Z,59.40
2018-06-28T06:41:49.101Z,60.00
2018-06-28T06:44:18.798Z,60.90
2018-06-28T06:46:48.459Z,60.40
2018-06-28T06:49:18.339Z,61.70
2018-06-28T06:51:48.498Z,62.30
2018-06-28T06:54:18.312Z,60.40
2018-06-28T06:56:48.052Z,59.70
2018-06-28T06:59:17.797Z,58.90
2018-06-28T07:01:47.540Z,58.90
2018-06-28T07:04:17.243Z,59.10
2018-06-28T07:06:47.315Z,58.80
2018-06-28T07:09:17.157Z,59.50
2018-06-28T07:11:46.869Z,60.50
2018-06-28T07:14:16.597Z,62.00
2018-06-28T07:16:46.307Z,61.90
2018-06-28T07:19:15.988Z,62.60
2018-06-28T07:21:46.043Z,62.60
2018-06-28T07:24:15.857Z,61.90
2018-06-28T07:26:45.647Z,61.50
2018-06-28T07:29:15.306Z,61.60
2018-06-28T07:31:45.023Z,60.80
2018-06-28T07:34:14.879Z,62.10
2018-06-28T07:36:44.606Z,62.10
2018-06-28T07:39:14.642Z,62.50
2018-06-28T07:41:44.339Z,62.70
2018-06-28T07:44:14.416Z,63.00
2018-06-28T07:46:44.147Z,62.90
2018-06-28T07:51:43.323Z,62.60
2018-06-28T07:54:13.023Z,62.90
2018-06-28T07:56:42.700Z,62.50
2018-06-28T07:59:12.735Z,62.40
2018-06-28T08:01:42.411Z,62.50
2018-06-28T08:04:12.091Z,62.80
2018-06-28T08:06:41.827Z,63.50
2018-06-28T08:09:11.631Z,63.00
2018-06-28T08:11:41.327Z,62.80
2018-06-28T08:14:11.052Z,63.00
2018-06-28T08:16:40.778Z,63.20
2018-06-28T08:19:10.865Z,62.30
2018-06-28T08:21:40.597Z,62.50
2018-06-28T08:24:10.334Z,62.40
2018-06-28T08:26:40.046Z,62.40
2018-06-28T08:29:09.762Z,61.50
2018-06-28T08:31:39.832Z,60.20
2018-06-28T08:34:09.647Z,59.00
2018-06-28T08:36:39.374Z,58.40
2018-06-28T08:39:10.312Z,58.90
2018-06-28T08:41:40.032Z,58.50
2018-06-28T08:44:09.772Z,58.40
2018-06-28T08:46:39.479Z,57.90
2018-06-28T08:49:09.556Z,57.80
2018-06-28T08:51:39.308Z,57.20
2018-06-28T08:54:09.405Z,56.90
2018-06-28T08:56:39.315Z,56.50
2018-06-28T08:59:09.211Z,56.70
2018-06-28T09:01:38.911Z,57.50
2018-06-28T09:04:08.651Z,58.90
2018-06-28T09:06:38.554Z,58.60
2018-06-28T09:09:10.198Z,58.60
2018-06-28T09:11:40.200Z,58.60
2018-06-28T09:16:39.771Z,59.70
2018-06-28T09:19:09.508Z,60.10
2018-06-28T09:21:39.209Z,60.00
2018-06-28T09:24:08.945Z,60.50
2018-06-28T09:26:38.660Z,59.80
2018-06-28T09:29:08.410Z,59.40
2018-06-28T09:31:38.478Z,58.80
2018-06-28T09:34:08.966Z,59.00
2018-06-28T09:36:38.711Z,57.60
2018-06-28T09:39:10.106Z,57.30
2018-06-28T09:41:39.838Z,57.70
2018-06-28T09:44:09.580Z,57.20
2018-06-28T09:46:39.290Z,56.70
2018-06-28T09:49:09.025Z,57.60
2018-06-28T09:51:39.135Z,57.10
2018-06-28T09:54:09.190Z,57.00
2018-06-28T09:56:38.969Z,57.10
2018-06-28T09:59:08.740Z,57.10
2018-06-28T10:01:38.798Z,57.50
2018-06-28T10:04:08.920Z,58.40
2018-06-28T10:06:38.701Z,59.10
2018-06-28T10:09:09.404Z,59.10
2018-06-28T10:11:39.430Z,59.30
2018-06-28T10:14:09.179Z,59.20
2018-06-28T10:16:38.923Z,59.10
2018-06-28T10:19:08.659Z,58.80
2018-06-28T10:21:38.498Z,57.90
2018-06-28T10:24:08.620Z,57.70
2018-06-28T10:26:38.797Z,57.60
2018-06-28T10:29:09.832Z,57.30
2018-06-28T10:31:41.024Z,56.60
2018-06-28T10:34:10.759Z,56.70
2018-06-28T10:36:40.464Z,56.90
2018-06-28T10:39:11.213Z,56.70
2018-06-28T10:41:40.957Z,56.50
2018-06-28T10:44:10.748Z,56.70
2018-06-28T10:46:46.597Z,56.00
2018-06-28T10:49:17.782Z,56.00
2018-06-28T10:51:47.558Z,55.50
2018-06-28T10:54:21.014Z,55.80
2018-06-28T10:56:52.059Z,57.10
2018-06-28T10:59:21.782Z,58.10
2018-06-28T11:01:51.587Z,57.30
2018-06-28T11:04:21.496Z,57.50
2018-06-28T11:06:51.238Z,58.50
2018-06-28T11:09:23.013Z,60.30
2018-06-28T11:11:52.769Z,62.10
2018-06-28T11:14:23.603Z,63.70
2018-06-28T11:17:01.647Z,66.70
2018-06-28T11:22:17.507Z,65.60
2018-06-28T11:24:48.795Z,66.90
2018-06-28T11:27:26.176Z,65.90
2018-06-28T11:30:16.058Z,63.80
2018-06-28T11:32:58.638Z,63.00
2018-06-28T11:35:36.446Z,64.40
2018-06-28T11:38:17.964Z,63.10
2018-06-28T11:40:56.533Z,63.60
2018-06-28T11:43:28.166Z,63.60
2018-06-28T11:46:05.263Z,63.30
2018-06-28T11:48:41.173Z,62.10
2018-06-28T11:51:17.611Z,62.30
2018-06-28T11:54:02.365Z,61.10
2018-06-28T11:56:35.751Z,60.90
2018-06-28T11:59:08.883Z,60.90
2018-06-28T12:01:38.711Z,60.70
2018-06-28T12:04:13.123Z,61.00
2018-06-28T12:06:53.043Z,60.10
2018-06-28T12:09:28.574Z,60.70
2018-06-28T12:12:03.758Z,59.00
2018-06-28T12:14:35.257Z,58.50
2018-06-28T12:17:05.309Z,59.10
2018-06-28T12:19:34.987Z,59.00
2018-06-28T12:22:07.376Z,58.10
2018-06-28T12:24:38.478Z,58.00
2018-06-28T12:27:08.654Z,57.60
2018-06-28T12:29:46.966Z,57.30
2018-06-28T12:32:17.364Z,57.90
2018-06-28T12:34:49.115Z,58.60
2018-06-28T12:37:19.743Z,57.70
2018-06-28T12:39:49.866Z,57.60
2018-06-28T12:42:20.044Z,58.20
2018-06-28T12:44:49.844Z,58.70
2018-06-28T12:47:56.604Z,59.00
2018-06-28T12:50:26.775Z,59.10
2018-06-28T12:52:59.314Z,59.70
2018-06-28T12:55:45.458Z,61.70
2018-06-28T12:58:19.394Z,65.00
2018-06-28T13:00:55.681Z,65.70
2018-06-28T13:03:28.746Z,66.50
2018-06-28T13:05:58.452Z,67.80
2018-06-28T13:08:28.220Z,68.10
2018-06-28T13:10:57.958Z,69.90
2018-06-28T13:13:27.763Z,69.10
2018-06-28T13:15:57.676Z,74.10
2018-06-28T13:18:27.403Z,76.20
2018-06-28T13:20:57.102Z,75.80
2018-06-28T13:23:26.830Z,75.40
2018-06-28T13:25:56.580Z,79.30
2018-06-28T13:28:26.367Z,80.80
2018-06-28T13:30:56.494Z,77.80
2018-06-28T13:33:26.539Z,78.20
2018-06-28T13:35:56.451Z,79.80
2018-06-28T13:38:26.476Z,78.20
2018-06-28T13:40:56.480Z,79.20
2018-06-28T13:43:26.623Z,79.40
2018-06-28T13:45:59.683Z,80.50
2018-06-28T13:48:29.502Z,81.80
2018-06-28T13:50:59.299Z,82.50
2018-06-28T13:53:29.092Z,83.00
2018-06-28T13:55:58.867Z,83.00
2018-06-28T13:58:28.635Z,83.00
2018-06-28T14:00:58.407Z,83.10
2018-06-28T14:03:28.274Z,84.40
2018-06-28T14:05:58.132Z,84.20
2018-06-28T14:08:27.900Z,83.60
2018-06-28T14:10:57.742Z,83.80
2018-06-28T14:13:27.481Z,84.00
2018-06-28T14:15:57.280Z,85.50
2018-06-28T14:18:27.111Z,83.40
2018-06-28T14:20:56.992Z,84.70
2018-06-28T14:23:26.791Z,85.70
2018-06-28T14:25:56.760Z,85.20
2018-06-28T14:28:26.775Z,84.60
2018-06-28T14:30:56.603Z,85.50
2018-06-28T14:33:26.353Z,86.00
2018-06-28T14:35:56.408Z,85.50
2018-06-28T14:38:26.164Z,84.60
2018-06-28T14:40:55.902Z,84.90
2018-06-28T14:43:25.642Z,83.40
2018-06-28T14:45:55.396Z,84.80
2018-06-28T14:48:25.119Z,85.00
2018-06-28T14:50:54.840Z,84.90
2018-06-28T14:53:24.891Z,85.10
2018-06-28T14:55:54.629Z,84.60
2018-06-28T14:58:24.382Z,84.90
2018-06-28T15:03:23.430Z,85.50
2018-06-28T15:05:53.131Z,86.50
2018-06-28T15:08:22.918Z,86.80
2018-06-28T15:10:53.048Z,86.10
2018-06-28T15:13:22.815Z,85.50
2018-06-28T15:15:52.940Z,85.60
2018-06-28T15:18:22.704Z,85.50
2018-06-28T15:20:52.518Z,84.70
2018-06-28T15:23:22.264Z,84.30
2018-06-28T15:25:52.049Z,85.30
2018-06-28T15:28:21.811Z,86.30
2018-06-28T15:30:51.571Z,84.50
2018-06-28T15:33:21.347Z,85.30
2018-06-28T15:35:51.306Z,84.30
2018-06-28T15:38:21.109Z,84.40
2018-06-28T15:40:50.850Z,83.80
2018-06-28T15:43:25.331Z,84.90
2018-06-28T15:45:55.567Z,84.30
2018-06-28T15:48:25.332Z,85.50
2018-06-28T15:50:55.097Z,84.60
2018-06-28T15:53:24.863Z,84.00
2018-06-28T15:55:54.660Z,85.60
2018-06-28T15:58:24.455Z,85.60
2018-06-28T16:00:54.230Z,84.80
2018-06-28T16:03:23.968Z,86.00
2018-06-28T16:05:53.766Z,86.00
2018-06-28T16:08:23.518Z,85.50
2018-06-28T16:10:53.257Z,84.40
2018-06-28T16:13:22.946Z,85.60
2018-06-28T16:15:52.686Z,85.70
2018-06-28T16:18:23.090Z,85.30
2018-06-28T16:20:54.463Z,86.30
2018-06-28T16:23:24.402Z,86.80
2018-06-28T16:25:55.321Z,87.90
2018-06-28T16:28:30.970Z,86.30
2018-06-28T16:31:02.065Z,87.50
2018-06-28T16:33:32.756Z,88.30
2018-06-28T16:36:03.398Z,88.30
2018-06-28T16:38:35.249Z,88.60
2018-06-28T16:41:07.982Z,87.60
2018-06-28T16:43:39.218Z,87.90
2018-06-28T16:46:10.117Z,88.20
2018-06-28T16:48:40.482Z,89.30
2018-06-28T16:51:11.928Z,89.20
2018-06-28T16:53:42.607Z,89.30
2018-06-28T16:56:13.289Z,88.20
2018-06-28T16:58:43.170Z,87.80
2018-06-28T17:01:13.163Z,87.70
2018-06-28T17:03:43.020Z,86.10
2018-06-28T17:06:13.221Z,87.20
2018-06-28T17:08:43.942Z,86.10
2018-06-28T17:11:13.680Z,87.20
2018-06-28T17:13:44.099Z,87.30
2018-06-28T17:16:13.956Z,87.10
2018-06-28T17:18:43.995Z,87.00
2018-06-28T17:21:14.126Z,87.30
2018-06-28T17:23:43.868Z,86.10
2018-06-28T17:26:13.619Z,86.60
2018-06-28T17:28:43.374Z,86.80
2018-06-28T17:31:14.634Z,86.70
2018-06-28T17:33:48.324Z,87.00
2018-06-28T17:36:18.064Z,87.00
2018-06-28T17:38:47.806Z,87.20
2018-06-28T17:41:21.158Z,87.40
2018-06-28T17:43:53.675Z,87.30
2018-06-28T17:46:23.603Z,87.60
2018-06-28T17:48:53.310Z,86.60
2018-06-28T17:51:23.024Z,86.80
2018-06-28T17:53:52.703Z,86.70
2018-06-28T17:56:22.452Z,87.30
2018-06-28T17:58:53.156Z,86.80
2018-06-28T18:01:22.851Z,86.70
2018-06-28T18:03:52.534Z,86.20
2018-06-28T18:06:22.280Z,87.00
2018-06-28T18:08:52.122Z,86.30
2018-06-28T18:11:22.040Z,86.50
2018-06-28T18:13:51.773Z,85.50
2018-06-28T18:16:21.613Z,85.70
2018-06-28T18:18:51.330Z,88.30
2018-06-28T18:21:21.074Z,87.70
2018-06-28T18:23:50.822Z,87.50
2018-06-28T18:26:20.526Z,88.40
2018-06-28T18:28:50.284Z,87.20
2018-06-28T18:31:20.031Z,89.40
2018-06-28T18:33:49.744Z,88.80
2018-06-28T18:36:19.974Z,90.00
2018-06-28T18:38:50.130Z,90.10
2018-06-28T18:41:19.852Z,90.00
2018-06-28T18:43:49.594Z,89.40
2018-06-28T18:46:19.349Z,89.80
2018-06-28T18:48:49.094Z,90.00
2018-06-28T18:51:19.874Z,90.10
2018-06-28T18:53:56.332Z,90.40
2018-06-28T18:56:26.300Z,90.40
2018-06-28T18:58:56.487Z,90.70
2018-06-28T19:01:26.170Z,90.00
2018-06-28T19:03:56.573Z,89.20
2018-06-28T19:06:27.997Z,89.00
2018-06-28T19:08:59.659Z,89.90
2018-06-28T19:11:30.523Z,90.20
2018-06-28T19:14:06.793Z,90.00
2018-06-28T19:16:42.313Z,90.30
2018-06-28T19:19:13.014Z,90.20
2018-06-28T19:21:49.831Z,89.80
2018-06-28T19:24:19.642Z,90.10
2018-06-28T19:26:51.740Z,89.80
2018-06-28T19:29:26.836Z,90.40
2018-06-28T19:32:03.509Z,90.70
2018-06-28T19:34:37.699Z,90.50
2018-06-28T19:37:12.952Z,90.30
2018-06-28T19:39:48.101Z,90.10
2018-06-28T19:42:23.888Z,90.50
2018-06-28T19:44:56.705Z,90.60
2018-06-28T19:50:01.714Z,91.00
2018-06-28T19:52:36.778Z,90.80
2018-06-28T19:55:08.691Z,90.10
2018-06-28T19:57:41.542Z,90.40
2018-06-28T20:00:23.162Z,90.40
2018-06-28T20:03:00.608Z,90.30
2018-06-28T20:05:32.369Z,90.10
2018-06-28T20:08:08.700Z,90.10
2018-06-28T20:10:38.711Z,90.40
2018-06-28T20:13:13.879Z,90.30
2018-06-28T20:15:58.397Z,90.00
2018-06-28T20:18:33.584Z,90.50
2018-06-28T20:21:03.582Z,90.20
2018-06-28T20:23:33.844Z,90.30
2018-06-28T20:26:09.574Z,90.20
2018-06-28T20:28:44.879Z,90.30
2018-06-28T20:33:22.991Z,90.40
2018-06-28T20:35:54.105Z,90.30
2018-06-28T20:40:55.732Z,90.30
2018-06-28T20:43:25.604Z,90.80
2018-06-28T20:45:55.382Z,90.60
2018-06-28T20:48:25.122Z,90.50
2018-06-28T20:50:55.511Z,91.00
2018-06-28T20:53:25.768Z,91.00
2018-06-28T20:55:56.486Z,90.70
2018-06-28T20:58:26.586Z,91.00
2018-06-28T21:00:56.899Z,90.70
2018-06-28T21:03:27.591Z,91.10
2018-06-28T21:05:58.071Z,90.70
2018-06-28T21:08:29.634Z,90.90
2018-06-28T21:11:02.151Z,91.20
2018-06-28T21:13:31.954Z,91.10
2018-06-28T21:16:02.472Z,91.60
2018-06-28T21:18:32.934Z,91.10
2018-06-28T21:21:04.792Z,91.40
2018-06-28T21:23:34.922Z,91.30
2018-06-28T21:26:04.694Z,91.30
2018-06-28T21:28:35.192Z,91.40
2018-06-28T21:31:05.919Z,90.90
2018-06-28T21:33:35.735Z,90.90
2018-06-28T21:36:05.848Z,91.00
2018-06-28T21:38:37.328Z,91.00
2018-06-28T21:41:08.408Z,90.70
2018-06-28T21:43:38.894Z,91.30
2018-06-28T21:46:08.765Z,91.10
2018-06-28T21:48:38.474Z,91.10
2018-06-28T21:51:08.351Z,91.60
2018-06-28T21:53:38.065Z,92.00
2018-06-28T21:56:07.803Z,91.80
2018-06-28T21:58:37.565Z,91.50
2018-06-28T22:01:07.351Z,92.20
2018-06-28T22:03:37.105Z,91.90
2018-06-28T22:06:06.823Z,91.90
2018-06-28T22:08:36.631Z,91.60
2018-06-28T22:11:06.416Z,91.70
2018-06-28T22:13:36.175Z,91.40
2018-06-28T22:16:05.999Z,91.70
2018-06-28T22:18:35.715Z,91.70
2018-06-28T22:21:05.487Z,91.80
2018-06-28T22:23:35.263Z,92.10
2018-06-28T22:26:05.140Z,92.10
2018-06-28T22:28:34.991Z,92.10
2018-06-28T22:31:04.710Z,91.90
2018-06-28T22:33:34.438Z,92.30
2018-06-28T22:36:04.216Z,92.50
2018-06-28T22:38:33.931Z,92.10
2018-06-28T22:41:03.683Z,91.80
2018-06-28T22:43:33.391Z,91.70
2018-06-28T22:46:03.114Z,91.60
2018-06-28T22:48:32.824Z,91.80
2018-06-28T22:51:02.550Z,91.90
2018-06-28T22:53:32.257Z,91.90
2018-06-28T22:56:02.006Z,91.90
2018-06-28T22:58:31.706Z,91.70
2018-06-28T23:01:01.447Z,91.70
2018-06-28T23:03:31.164Z,91.80
2018-06-28T23:06:00.922Z,92.00
2018-06-28T23:08:30.642Z,92.40
2018-06-28T23:11:00.375Z,92.50
2018-06-28T23:13:30.109Z,92.10
2018-06-28T23:15:59.864Z,92.40
2018-06-28T23:18:29.596Z,92.20
2018-06-28T23:20:59.344Z,92.30
2018-06-28T23:23:29.098Z,92.30
2018-06-28T23:25:58.799Z,92.40
2018-06-28T23:28:28.519Z,92.30
2018-06-28T23:30:58.256Z,92.30
2018-06-28T23:33:27.987Z,92.60
2018-06-28T23:35:57.728Z,92.50
2018-06-28T23:38:27.450Z,92.30
2018-06-28T23:40:57.160Z,92.50
2018-06-28T23:43:26.891Z,92.20
2018-06-28T23:46:01.418Z,92.20
2018-06-28T23:48:31.158Z,91.90
2018-06-28T23:51:00.936Z,91.80
2018-06-28T23:53:30.706Z,91.90
2018-06-28T23:56:00.442Z,92.00
